This is the latest recevied weather packets stored in our database for station/object N0MPM-4. If no packets are shown the sender has not sent any weather packets the latest 1 day(s).
| Time | Temp. | Humidity | Pressure | Rain* | Wind** | Luminosity | Snow |
|---|---|---|---|---|---|---|---|
| 1836274564 | 18.33° C | 86% | 1015.6 hPa | 0 mm | 0 m/s | - | - |
| 1836274414 | 17.78° C | 86% | 1015.8 hPa | 0 mm | 0 m/s | - | - |
| 1836274264 | 18.33° C | 86% | 1015.6 hPa | 0 mm | 0 m/s | - | - |
| 1836274114 | 17.78° C | 86% | 1015.6 hPa | 0 mm | 0 m/s | - | - |
| 1836273964 | 18.33° C | 85% | 1015.5 hPa | 0 mm | 0 m/s | - | - |
| 1778053778 | 3.33° C | 64% | 1014.6 hPa | 0 mm | 0 m/s | - | - |
| 1778053478 | 3.89° C | 64% | 1014.6 hPa | 0 mm | 0 m/s | - | - |
| 1778053178 | 3.89° C | 64% | 1014.7 hPa | 0 mm | 0 m/s | - | - |
| 1778052878 | 3.89° C | 64% | 1014.7 hPa | 0 mm | 0 m/s | - | - |
| 1778052578 | 3.89° C | 64% | 1014.8 hPa | 0 mm | 0 m/s | - | - |
| 1778052278 | 4.44° C | 63% | 1014.7 hPa | 0 mm | 0 m/s | - | - |
| 1778051978 | 4.44° C | 63% | 1014.8 hPa | 0 mm | 0 m/s | - | - |
| 1778051678 | 4.44° C | 64% | 1014.9 hPa | 0 mm | 0 m/s | - | - |
| 1778051378 | 4.44° C | 65% | 1015 hPa | 0 mm | 0 m/s | - | - |
| 1778051078 | 3.89° C | 66% | 1015 hPa | 0 mm | 0 m/s | - | - |
| 1778050778 | 3.89° C | 67% | 1014.9 hPa | 0 mm | 0 m/s | - | - |
| 1778050478 | 3.89° C | 68% | 1014.8 hPa | 0 mm | 0 m/s | - | - |
| 1778050178 | 3.89° C | 68% | 1014.9 hPa | 0 mm | 0 m/s | - | - |
| 1778049878 | 3.89° C | 69% | 1014.9 hPa | 0 mm | 0 m/s | - | - |
| 1778049578 | 3.89° C | 69% | 1014.8 hPa | 0 mm | 0 m/s | - | - |
| 1778049278 | 3.89° C | 68% | 1014.7 hPa | 0 mm | 0 m/s | - | - |
| 1778048978 | 4.44° C | 68% | 1014.6 hPa | 0 mm | 0 m/s | - | - |
| 1778048678 | 4.44° C | 68% | 1014.6 hPa | 0 mm | 0 m/s | - | - |
| 1778048378 | 4.44° C | 70% | 1014.5 hPa | 0 mm | 0 m/s | - | - |
| 1778048078 | 4.44° C | 70% | 1014.5 hPa | 0 mm | 0 m/s | - | - |
* Rain latest hour (hover to see other rain measurements)
** Current wind speed in m/s (hover to see current wind gust speed)